sensor_id;sensor_type;location;lat;lon;timestamp;pressure;altitude;pressure_sealevel;temperature;humidity
2875;BME280;1445;52.600;13.328;2023-07-16T00:02:09;100082.47;;;23.64;nan
2875;BME280;1445;52.600;13.328;2023-07-16T00:04:34;100087.28;;;23.74;nan
2875;BME280;1445;52.600;13.328;2023-07-16T00:07:00;100089.69;;;23.65;nan
2875;BME280;1445;52.600;13.328;2023-07-16T00:09:29;100094.53;;;23.54;nan
2875;BME280;1445;52.600;13.328;2023-07-16T00:11:56;100097.78;;;23.49;nan
2875;BME280;1445;52.600;13.328;2023-07-16T00:14:21;100087.69;;;23.55;nan
2875;BME280;1445;52.600;13.328;2023-07-16T00:16:46;100081.25;;;23.65;nan
2875;BME280;1445;52.600;13.328;2023-07-16T00:19:14;100076.06;;;23.56;nan
2875;BME280;1445;52.600;13.328;2023-07-16T00:21:39;100064.78;;;23.64;nan
2875;BME280;1445;52.600;13.328;2023-07-16T00:24:05;100068.00;;;23.69;nan
2875;BME280;1445;52.600;13.328;2023-07-16T00:26:30;100066.78;;;23.63;nan
2875;BME280;1445;52.600;13.328;2023-07-16T00:28:56;100076.91;;;23.43;nan
2875;BME280;1445;52.600;13.328;2023-07-16T00:31:21;100080.06;;;23.59;nan
2875;BME280;1445;52.600;13.328;2023-07-16T00:33:47;100078.88;;;23.67;nan
2875;BME280;1445;52.600;13.328;2023-07-16T00:36:12;100098.13;;;23.62;nan
2875;BME280;1445;52.600;13.328;2023-07-16T00:38:37;100102.16;;;23.64;nan
2875;BME280;1445;52.600;13.328;2023-07-16T00:41:05;100111.41;;;23.61;nan
2875;BME280;1445;52.600;13.328;2023-07-16T00:43:30;100113.84;;;23.59;nan
2875;BME280;1445;52.600;13.328;2023-07-16T00:45:56;100129.13;;;23.44;nan
2875;BME280;1445;52.600;13.328;2023-07-16T00:48:21;100127.53;;;23.43;nan
2875;BME280;1445;52.600;13.328;2023-07-16T00:50:46;100147.22;;;23.39;nan
2875;BME280;1445;52.600;13.328;2023-07-16T00:53:12;100161.69;;;23.34;nan
2875;BME280;1445;52.600;13.328;2023-07-16T00:55:38;100176.56;;;23.27;nan
2875;BME280;1445;52.600;13.328;2023-07-16T00:58:05;100189.41;;;23.25;nan
2875;BME280;1445;52.600;13.328;2023-07-16T01:00:35;100208.69;;;23.23;nan
2875;BME280;1445;52.600;13.328;2023-07-16T01:03:03;100217.53;;;23.21;nan
2875;BME280;1445;52.600;13.328;2023-07-16T01:05:36;100228.78;;;23.28;nan
2875;BME280;1445;52.600;13.328;2023-07-16T01:08:06;100236.81;;;23.33;nan
2875;BME280;1445;52.600;13.328;2023-07-16T01:10:34;100244.06;;;23.34;nan
2875;BME280;1445;52.600;13.328;2023-07-16T01:12:59;100260.13;;;23.38;nan
2875;BME280;1445;52.600;13.328;2023-07-16T01:15:29;100273.00;;;23.46;nan
2875;BME280;1445;52.600;13.328;2023-07-16T01:17:54;100287.47;;;23.58;nan
2875;BME280;1445;52.600;13.328;2023-07-16T01:20:19;100297.13;;;23.65;nan
2875;BME280;1445;52.600;13.328;2023-07-16T01:23:35;100329.31;;;23.74;nan
2875;BME280;1445;52.600;13.328;2023-07-16T01:31:13;100355.41;;;23.53;nan
2875;BME280;1445;52.600;13.328;2023-07-16T01:33:40;100373.09;;;23.61;nan
2875;BME280;1445;52.600;13.328;2023-07-16T01:36:07;100395.97;;;23.38;nan
2875;BME280;1445;52.600;13.328;2023-07-16T01:38:34;100442.50;;;22.52;nan
2875;BME280;1445;52.600;13.328;2023-07-16T01:41:00;100468.75;;;22.22;nan
2875;BME280;1445;52.600;13.328;2023-07-16T01:43:25;100491.03;;;22.08;nan
2875;BME280;1445;52.600;13.328;2023-07-16T01:45:50;100499.72;;;21.96;nan
2875;BME280;1445;52.600;13.328;2023-07-16T01:48:31;100503.25;;;21.89;nan
2875;BME280;1445;52.600;13.328;2023-07-16T01:50:57;100512.94;;;21.91;nan
2875;BME280;1445;52.600;13.328;2023-07-16T01:53:22;100522.94;;;21.92;nan
2875;BME280;1445;52.600;13.328;2023-07-16T01:55:48;100517.25;;;21.85;nan
2875;BME280;1445;52.600;13.328;2023-07-16T01:58:13;100519.69;;;21.87;nan
2875;BME280;1445;52.600;13.328;2023-07-16T02:00:39;100517.69;;;21.87;nan
2875;BME280;1445;52.600;13.328;2023-07-16T02:03:04;100534.13;;;21.89;nan
2875;BME280;1445;52.600;13.328;2023-07-16T02:05:29;100548.16;;;21.89;nan
2875;BME280;1445;52.600;13.328;2023-07-16T02:07:55;100533.88;;;22.01;nan
2875;BME280;1445;52.600;13.328;2023-07-16T02:10:20;100534.28;;;22.03;nan
2875;BME280;1445;52.600;13.328;2023-07-16T02:12:46;100535.94;;;22.04;nan
2875;BME280;1445;52.600;13.328;2023-07-16T02:15:11;100541.16;;;22.06;nan
2875;BME280;1445;52.600;13.328;2023-07-16T02:17:36;100542.03;;;22.13;nan
2875;BME280;1445;52.600;13.328;2023-07-16T02:20:02;100520.81;;;22.16;nan
2875;BME280;1445;52.600;13.328;2023-07-16T02:22:30;100497.97;;;22.18;nan
2875;BME280;1445;52.600;13.328;2023-07-16T02:24:56;100500.31;;;22.12;nan
2875;BME280;1445;52.600;13.328;2023-07-16T02:27:21;100518.06;;;21.86;nan
2875;BME280;1445;52.600;13.328;2023-07-16T02:29:46;100556.66;;;21.59;nan
2875;BME280;1445;52.600;13.328;2023-07-16T02:32:12;100566.56;;;21.26;nan
2875;BME280;1445;52.600;13.328;2023-07-16T02:34:38;100592.13;;;20.94;nan
2875;BME280;1445;52.600;13.328;2023-07-16T02:37:03;100615.13;;;20.58;nan
2875;BME280;1445;52.600;13.328;2023-07-16T02:39:29;100634.78;;;20.42;nan
2875;BME280;1445;52.600;13.328;2023-07-16T02:41:54;100621.41;;;20.32;nan
2875;BME280;1445;52.600;13.328;2023-07-16T02:44:19;100623.56;;;20.19;nan
2875;BME280;1445;52.600;13.328;2023-07-16T02:46:45;100627.69;;;20.06;nan
2875;BME280;1445;52.600;13.328;2023-07-16T02:49:10;100644.41;;;20.02;nan
2875;BME280;1445;52.600;13.328;2023-07-16T02:51:36;100666.88;;;20.06;nan
2875;BME280;1445;52.600;13.328;2023-07-16T02:54:01;100692.25;;;19.97;nan
2875;BME280;1445;52.600;13.328;2023-07-16T02:56:27;100712.22;;;19.95;nan
2875;BME280;1445;52.600;13.328;2023-07-16T02:58:52;100716.22;;;19.94;nan
2875;BME280;1445;52.600;13.328;2023-07-16T03:01:18;100719.75;;;19.91;nan
2875;BME280;1445;52.600;13.328;2023-07-16T03:03:43;100714.50;;;19.90;nan
2875;BME280;1445;52.600;13.328;2023-07-16T03:06:08;100725.59;;;19.86;nan
2875;BME280;1445;52.600;13.328;2023-07-16T03:08:34;100720.84;;;19.87;nan
2875;BME280;1445;52.600;13.328;2023-07-16T03:11:00;100707.91;;;19.98;nan
2875;BME280;1445;52.600;13.328;2023-07-16T03:13:25;100706.41;;;20.04;nan
2875;BME280;1445;52.600;13.328;2023-07-16T03:15:51;100710.50;;;20.26;nan
2875;BME280;1445;52.600;13.328;2023-07-16T03:18:19;100691.25;;;20.24;nan
2875;BME280;1445;52.600;13.328;2023-07-16T03:20:45;100698.25;;;20.34;nan
2875;BME280;1445;52.600;13.328;2023-07-16T03:23:10;100697.44;;;20.34;nan
2875;BME280;1445;52.600;13.328;2023-07-16T03:25:36;100684.84;;;20.43;nan
2875;BME280;1445;52.600;13.328;2023-07-16T03:28:01;100676.28;;;20.56;nan
2875;BME280;1445;52.600;13.328;2023-07-16T03:30:27;100659.19;;;20.61;nan
2875;BME280;1445;52.600;13.328;2023-07-16T03:32:52;100663.41;;;20.74;nan
2875;BME280;1445;52.600;13.328;2023-07-16T03:35:17;100696.91;;;20.67;nan
2875;BME280;1445;52.600;13.328;2023-07-16T03:37:43;100710.91;;;20.47;nan
2875;BME280;1445;52.600;13.328;2023-07-16T03:40:16;100698.84;;;20.43;nan
2875;BME280;1445;52.600;13.328;2023-07-16T03:42:42;100685.06;;;20.54;nan
2875;BME280;1445;52.600;13.328;2023-07-16T03:45:09;100680.09;;;20.67;nan
2875;BME280;1445;52.600;13.328;2023-07-16T03:47:34;100713.56;;;20.60;nan
2875;BME280;1445;52.600;13.328;2023-07-16T03:50:00;100707.84;;;20.53;nan
2875;BME280;1445;52.600;13.328;2023-07-16T03:52:25;100722.78;;;20.41;nan
2875;BME280;1445;52.600;13.328;2023-07-16T03:54:51;100718.56;;;20.31;nan
2875;BME280;1445;52.600;13.328;2023-07-16T03:57:16;100713.13;;;20.38;nan
2875;BME280;1445;52.600;13.328;2023-07-16T03:59:42;100710.91;;;20.47;nan
2875;BME280;1445;52.600;13.328;2023-07-16T04:02:08;100708.72;;;20.57;nan
2875;BME280;1445;52.600;13.328;2023-07-16T04:04:33;100725.34;;;20.49;nan
2875;BME280;1445;52.600;13.328;2023-07-16T04:06:59;100718.69;;;20.54;nan
2875;BME280;1445;52.600;13.328;2023-07-16T04:09:24;100705.50;;;20.55;nan
2875;BME280;1445;52.600;13.328;2023-07-16T04:11:50;100714.63;;;20.52;nan
2875;BME280;1445;52.600;13.328;2023-07-16T04:14:15;100700.69;;;20.55;nan
2875;BME280;1445;52.600;13.328;2023-07-16T04:16:40;100684.69;;;20.56;nan
2875;BME280;1445;52.600;13.328;2023-07-16T04:19:06;100668.69;;;20.56;nan
2875;BME280;1445;52.600;13.328;2023-07-16T04:21:32;100659.25;;;20.64;nan
2875;BME280;1445;52.600;13.328;2023-07-16T04:23:57;100661.75;;;20.69;nan
2875;BME280;1445;52.600;13.328;2023-07-16T04:26:23;100664.53;;;20.69;nan
2875;BME280;1445;52.600;13.328;2023-07-16T04:28:48;100668.09;;;20.66;nan
2875;BME280;1445;52.600;13.328;2023-07-16T04:31:14;100667.28;;;20.66;nan
2875;BME280;1445;52.600;13.328;2023-07-16T04:33:39;100678.69;;;20.77;nan
2875;BME280;1445;52.600;13.328;2023-07-16T04:36:05;100674.56;;;20.70;nan
2875;BME280;1445;52.600;13.328;2023-07-16T04:38:30;100679.00;;;20.71;nan
2875;BME280;1445;52.600;13.328;2023-07-16T04:40:55;100674.34;;;20.60;nan
2875;BME280;1445;52.600;13.328;2023-07-16T04:43:21;100673.19;;;20.61;nan
2875;BME280;1445;52.600;13.328;2023-07-16T04:45:46;100659.25;;;20.64;nan
2875;BME280;1445;52.600;13.328;2023-07-16T04:48:12;100666.75;;;20.60;nan
2875;BME280;1445;52.600;13.328;2023-07-16T04:50:38;100686.09;;;20.65;nan
2875;BME280;1445;52.600;13.328;2023-07-16T04:53:04;100696.84;;;20.63;nan
2875;BME280;1445;52.600;13.328;2023-07-16T04:55:35;100692.34;;;20.59;nan
2875;BME280;1445;52.600;13.328;2023-07-16T04:58:00;100695.75;;;20.68;nan
2875;BME280;1445;52.600;13.328;2023-07-16T05:00:26;100682.47;;;20.65;nan
2875;BME280;1445;52.600;13.328;2023-07-16T05:02:51;100679.41;;;20.73;nan
2875;BME280;1445;52.600;13.328;2023-07-16T05:05:17;100685.41;;;20.72;nan
2875;BME280;1445;52.600;13.328;2023-07-16T05:07:42;100697.47;;;20.76;nan
2875;BME280;1445;52.600;13.328;2023-07-16T05:10:08;100709.22;;;20.82;nan
2875;BME280;1445;52.600;13.328;2023-07-16T05:12:33;100695.19;;;20.82;nan
2875;BME280;1445;52.600;13.328;2023-07-16T05:14:59;100683.78;;;20.94;nan
2875;BME280;1445;52.600;13.328;2023-07-16T05:17:24;100669.47;;;20.99;nan
2875;BME280;1445;52.600;13.328;2023-07-16T05:19:50;100680.31;;;21.01;nan
2875;BME280;1445;52.600;13.328;2023-07-16T05:22:15;100660.00;;;21.07;nan
2875;BME280;1445;52.600;13.328;2023-07-16T05:24:41;100656.97;;;21.19;nan
2875;BME280;1445;52.600;13.328;2023-07-16T05:27:06;100655.81;;;21.20;nan
2875;BME280;1445;52.600;13.328;2023-07-16T05:29:31;100651.13;;;21.28;nan
2875;BME280;1445;52.600;13.328;2023-07-16T05:31:57;100642.97;;;21.42;nan
2875;BME280;1445;52.600;13.328;2023-07-16T05:34:22;100646.84;;;21.34;nan
2875;BME280;1445;52.600;13.328;2023-07-16T05:36:47;100645.88;;;21.27;nan
2875;BME280;1445;52.600;13.328;2023-07-16T05:39:13;100630.75;;;21.31;nan
2875;BME280;1445;52.600;13.328;2023-07-16T05:41:39;100638.06;;;21.36;nan
2875;BME280;1445;52.600;13.328;2023-07-16T05:44:05;100631.16;;;21.33;nan
2875;BME280;1445;52.600;13.328;2023-07-16T05:46:30;100647.56;;;21.31;nan
2875;BME280;1445;52.600;13.328;2023-07-16T05:48:56;100643.22;;;21.34;nan
2875;BME280;1445;52.600;13.328;2023-07-16T05:51:21;100653.69;;;21.37;nan
2875;BME280;1445;52.600;13.328;2023-07-16T05:53:47;100645.75;;;21.42;nan
2875;BME280;1445;52.600;13.328;2023-07-16T05:56:12;100645.47;;;21.51;nan
2875;BME280;1445;52.600;13.328;2023-07-16T05:58:39;100635.34;;;21.70;nan
2875;BME280;1445;52.600;13.328;2023-07-16T06:01:05;100635.84;;;21.79;nan
2875;BME280;1445;52.600;13.328;2023-07-16T06:03:30;100640.69;;;21.82;nan
2875;BME280;1445;52.600;13.328;2023-07-16T06:05:55;100643.19;;;21.87;nan
2875;BME280;1445;52.600;13.328;2023-07-16T06:08:21;100655.97;;;21.84;nan
2875;BME280;1445;52.600;13.328;2023-07-16T06:10:46;100638.19;;;21.73;nan
2875;BME280;1445;52.600;13.328;2023-07-16T06:13:11;100646.31;;;21.82;nan
2875;BME280;1445;52.600;13.328;2023-07-16T06:15:37;100634.47;;;21.96;nan
2875;BME280;1445;52.600;13.328;2023-07-16T06:18:02;100630.97;;;22.06;nan
2875;BME280;1445;52.600;13.328;2023-07-16T06:20:28;100617.34;;;22.04;nan
2875;BME280;1445;52.600;13.328;2023-07-16T06:22:54;100626.31;;;22.17;nan
2875;BME280;1445;52.600;13.328;2023-07-16T06:25:19;100621.22;;;22.26;nan
2875;BME280;1445;52.600;13.328;2023-07-16T06:27:44;100607.53;;;22.25;nan
2875;BME280;1445;52.600;13.328;2023-07-16T06:30:10;100608.44;;;22.32;nan
2875;BME280;1445;52.600;13.328;2023-07-16T06:32:35;100608.88;;;22.34;nan
2875;BME280;1445;52.600;13.328;2023-07-16T06:35:01;100611.38;;;22.43;nan
2875;BME280;1445;52.600;13.328;2023-07-16T06:37:26;100608.22;;;22.52;nan
2875;BME280;1445;52.600;13.328;2023-07-16T06:39:51;100623.13;;;22.56;nan
2875;BME280;1445;52.600;13.328;2023-07-16T06:42:17;100611.53;;;22.61;nan
2875;BME280;1445;52.600;13.328;2023-07-16T06:44:42;100618.13;;;22.79;nan
2875;BME280;1445;52.600;13.328;2023-07-16T06:47:08;100605.47;;;22.96;nan
2875;BME280;1445;52.600;13.328;2023-07-16T06:49:33;100599.81;;;22.93;nan
2875;BME280;1445;52.600;13.328;2023-07-16T06:52:00;100596.53;;;22.91;nan
2875;BME280;1445;52.600;13.328;2023-07-16T06:54:27;100612.84;;;23.19;nan
2875;BME280;1445;52.600;13.328;2023-07-16T06:56:53;100599.84;;;22.96;nan
2875;BME280;1445;52.600;13.328;2023-07-16T06:59:18;100595.13;;;23.11;nan
2875;BME280;1445;52.600;13.328;2023-07-16T07:01:43;100618.34;;;23.01;nan
2875;BME280;1445;52.600;13.328;2023-07-16T07:04:09;100598.22;;;22.99;nan
2875;BME280;1445;52.600;13.328;2023-07-16T07:06:34;100605.06;;;23.01;nan
2875;BME280;1445;52.600;13.328;2023-07-16T07:09:00;100603.81;;;22.95;nan
2875;BME280;1445;52.600;13.328;2023-07-16T07:11:25;100605.97;;;23.13;nan
2875;BME280;1445;52.600;13.328;2023-07-16T07:13:52;100604.91;;;23.31;nan
2875;BME280;1445;52.600;13.328;2023-07-16T07:16:17;100610.97;;;23.41;nan
2875;BME280;1445;52.600;13.328;2023-07-16T07:18:43;100602.94;;;23.39;nan
2875;BME280;1445;52.600;13.328;2023-07-16T07:21:08;100608.88;;;23.30;nan
2875;BME280;1445;52.600;13.328;2023-07-16T07:23:34;100604.53;;;23.40;nan
2875;BME280;1445;52.600;13.328;2023-07-16T07:25:59;100603.16;;;23.78;nan
2875;BME280;1445;52.600;13.328;2023-07-16T07:28:25;100585.94;;;23.94;nan
2875;BME280;1445;52.600;13.328;2023-07-16T07:30:50;100591.59;;;23.98;nan
2875;BME280;1445;52.600;13.328;2023-07-16T07:33:16;100583.94;;;23.95;nan
2875;BME280;1445;52.600;13.328;2023-07-16T07:35:41;100595.13;;;23.80;nan
2875;BME280;1445;52.600;13.328;2023-07-16T07:38:07;100607.84;;;23.56;nan
2875;BME280;1445;52.600;13.328;2023-07-16T07:40:32;100636.72;;;23.43;nan
2875;BME280;1445;52.600;13.328;2023-07-16T07:42:57;100630.25;;;23.39;nan
2875;BME280;1445;52.600;13.328;2023-07-16T07:45:24;100627.03;;;23.40;nan
2875;BME280;1445;52.600;13.328;2023-07-16T07:47:49;100610.66;;;23.53;nan
2875;BME280;1445;52.600;13.328;2023-07-16T07:50:15;100609.81;;;23.49;nan
2875;BME280;1445;52.600;13.328;2023-07-16T07:52:40;100619.06;;;23.46;nan
2875;BME280;1445;52.600;13.328;2023-07-16T07:55:06;100618.38;;;23.67;nan
2875;BME280;1445;52.600;13.328;2023-07-16T07:57:31;100610.81;;;23.78;nan
2875;BME280;1445;52.600;13.328;2023-07-16T07:59:57;100610.06;;;23.95;nan
2875;BME280;1445;52.600;13.328;2023-07-16T08:02:23;100601.63;;;23.95;nan
2875;BME280;1445;52.600;13.328;2023-07-16T08:04:53;100601.94;;;23.76;nan
2875;BME280;1445;52.600;13.328;2023-07-16T08:07:18;100597.50;;;23.71;nan
2875;BME280;1445;52.600;13.328;2023-07-16T08:09:45;100596.19;;;23.58;nan
2875;BME280;1445;52.600;13.328;2023-07-16T08:12:10;100597.38;;;23.53;nan
2875;BME280;1445;52.600;13.328;2023-07-16T08:14:36;100592.22;;;23.66;nan
2875;BME280;1445;52.600;13.328;2023-07-16T08:17:01;100584.22;;;23.72;nan
2875;BME280;1445;52.600;13.328;2023-07-16T08:19:27;100585.06;;;23.79;nan
2875;BME280;1445;52.600;13.328;2023-07-16T08:21:52;100586.38;;;24.07;nan
2875;BME280;1445;52.600;13.328;2023-07-16T08:24:17;100592.03;;;24.21;nan
2875;BME280;1445;52.600;13.328;2023-07-16T08:26:43;100571.53;;;24.39;nan
2875;BME280;1445;52.600;13.328;2023-07-16T08:29:08;100576.03;;;24.50;nan
2875;BME280;1445;52.600;13.328;2023-07-16T08:31:34;100583.59;;;24.28;nan
2875;BME280;1445;52.600;13.328;2023-07-16T08:33:59;100594.47;;;24.16;nan
2875;BME280;1445;52.600;13.328;2023-07-16T08:36:25;100601.25;;;24.11;nan
2875;BME280;1445;52.600;13.328;2023-07-16T08:38:51;100598.47;;;24.22;nan
2875;BME280;1445;52.600;13.328;2023-07-16T08:41:16;100597.25;;;24.09;nan
2875;BME280;1445;52.600;13.328;2023-07-16T08:43:42;100605.81;;;24.44;nan
2875;BME280;1445;52.600;13.328;2023-07-16T08:46:10;100594.97;;;24.64;nan
2875;BME280;1445;52.600;13.328;2023-07-16T08:48:35;100595.38;;;24.81;nan
2875;BME280;1445;52.600;13.328;2023-07-16T08:51:02;100587.28;;;25.36;nan
2875;BME280;1445;52.600;13.328;2023-07-16T08:53:29;100599.34;;;25.47;nan
2875;BME280;1445;52.600;13.328;2023-07-16T08:55:55;100598.59;;;25.26;nan
2875;BME280;1445;52.600;13.328;2023-07-16T08:58:22;100612.28;;;24.70;nan
2875;BME280;1445;52.600;13.328;2023-07-16T09:00:48;100603.00;;;24.44;nan
2875;BME280;1445;52.600;13.328;2023-07-16T09:03:14;100600.50;;;24.28;nan
2875;BME280;1445;52.600;13.328;2023-07-16T09:05:44;100604.94;;;24.22;nan
2875;BME280;1445;52.600;13.328;2023-07-16T09:08:09;100608.63;;;24.41;nan
2875;BME280;1445;52.600;13.328;2023-07-16T09:10:35;100605.84;;;24.66;nan
2875;BME280;1445;52.600;13.328;2023-07-16T09:13:00;100596.56;;;24.62;nan
2875;BME280;1445;52.600;13.328;2023-07-16T09:15:28;100619.13;;;24.80;nan
2875;BME280;1445;52.600;13.328;2023-07-16T09:17:54;100619.94;;;24.94;nan
2875;BME280;1445;52.600;13.328;2023-07-16T09:20:20;100611.06;;;25.35;nan
2875;BME280;1445;52.600;13.328;2023-07-16T09:22:47;100618.75;;;25.20;nan
2875;BME280;1445;52.600;13.328;2023-07-16T09:25:13;100622.78;;;25.19;nan
2875;BME280;1445;52.600;13.328;2023-07-16T09:27:38;100605.03;;;25.19;nan
2875;BME280;1445;52.600;13.328;2023-07-16T09:30:05;100611.88;;;25.32;nan
2875;BME280;1445;52.600;13.328;2023-07-16T09:32:35;100622.75;;;25.34;nan
2875;BME280;1445;52.600;13.328;2023-07-16T09:35:00;100616.31;;;25.22;nan
2875;BME280;1445;52.600;13.328;2023-07-16T09:37:27;100609.88;;;25.04;nan
2875;BME280;1445;52.600;13.328;2023-07-16T09:39:53;100617.53;;;25.07;nan
2875;BME280;1445;52.600;13.328;2023-07-16T09:42:19;100613.41;;;25.65;nan
2875;BME280;1445;52.600;13.328;2023-07-16T09:44:45;100619.16;;;25.19;nan
2875;BME280;1445;52.600;13.328;2023-07-16T09:47:11;100625.19;;;24.85;nan
2875;BME280;1445;52.600;13.328;2023-07-16T09:49:36;100617.91;;;24.98;nan
2875;BME280;1445;52.600;13.328;2023-07-16T09:52:02;100619.16;;;25.12;nan
2875;BME280;1445;52.600;13.328;2023-07-16T09:54:31;100619.50;;;25.46;nan
2875;BME280;1445;52.600;13.328;2023-07-16T09:56:58;100619.06;;;25.58;nan
2875;BME280;1445;52.600;13.328;2023-07-16T09:59:27;100610.53;;;25.76;nan
2875;BME280;1445;52.600;13.328;2023-07-16T10:01:56;100617.47;;;25.50;nan
2875;BME280;1445;52.600;13.328;2023-07-16T10:04:22;100614.47;;;26.04;nan
2875;BME280;1445;52.600;13.328;2023-07-16T10:07:00;100627.44;;;25.98;nan
2875;BME280;1445;52.600;13.328;2023-07-16T10:09:36;100617.03;;;25.73;nan
2875;BME280;1445;52.600;13.328;2023-07-16T10:14:41;100621.34;;;26.06;nan
2875;BME280;1445;52.600;13.328;2023-07-16T10:17:07;100632.53;;;26.28;nan
2875;BME280;1445;52.600;13.328;2023-07-16T10:24:57;100631.16;;;27.09;nan
2875;BME280;1445;52.600;13.328;2023-07-16T10:27:30;100628.66;;;27.22;nan
2875;BME280;1445;52.600;13.328;2023-07-16T10:29:56;100624.28;;;27.52;nan
2875;BME280;1445;52.600;13.328;2023-07-16T10:32:25;100609.25;;;27.96;nan
2875;BME280;1445;52.600;13.328;2023-07-16T10:34:52;100629.66;;;27.84;nan
2875;BME280;1445;52.600;13.328;2023-07-16T10:37:17;100641.28;;;27.52;nan
2875;BME280;1445;52.600;13.328;2023-07-16T10:39:50;100623.91;;;27.12;nan
2875;BME280;1445;52.600;13.328;2023-07-16T10:42:16;100624.66;;;27.57;nan
2875;BME280;1445;52.600;13.328;2023-07-16T10:44:42;100639.59;;;27.58;nan
2875;BME280;1445;52.600;13.328;2023-07-16T10:47:09;100628.56;;;27.71;nan
2875;BME280;1445;52.600;13.328;2023-07-16T10:49:35;100648.28;;;28.16;nan
2875;BME280;1445;52.600;13.328;2023-07-16T10:52:01;100655.44;;;27.55;nan
2875;BME280;1445;52.600;13.328;2023-07-16T10:54:27;100629.00;;;27.66;nan
2875;BME280;1445;52.600;13.328;2023-07-16T10:56:52;100634.53;;;27.42;nan
2875;BME280;1445;52.600;13.328;2023-07-16T10:59:18;100624.22;;;27.63;nan
2875;BME280;1445;52.600;13.328;2023-07-16T11:01:43;100624.16;;;27.66;nan
2875;BME280;1445;52.600;13.328;2023-07-16T11:04:09;100630.72;;;27.94;nan
2875;BME280;1445;52.600;13.328;2023-07-16T11:06:35;100629.66;;;26.98;nan
2875;BME280;1445;52.600;13.328;2023-07-16T11:09:09;100626.81;;;27.46;nan
2875;BME280;1445;52.600;13.328;2023-07-16T11:11:35;100621.53;;;28.47;nan
2875;BME280;1445;52.600;13.328;2023-07-16T11:14:04;100637.34;;;27.80;nan
2875;BME280;1445;52.600;13.328;2023-07-16T11:16:36;100620.38;;;28.11;nan
2875;BME280;1445;52.600;13.328;2023-07-16T11:19:04;100619.38;;;29.06;nan
2875;BME280;1445;52.600;13.328;2023-07-16T11:21:31;100627.38;;;28.02;nan
2875;BME280;1445;52.600;13.328;2023-07-16T11:24:10;100640.03;;;27.56;nan
2875;BME280;1445;52.600;13.328;2023-07-16T11:26:37;100630.97;;;28.06;nan
2875;BME280;1445;52.600;13.328;2023-07-16T11:29:12;100630.06;;;27.41;nan
2875;BME280;1445;52.600;13.328;2023-07-16T11:31:39;100637.22;;;27.94;nan
2875;BME280;1445;52.600;13.328;2023-07-16T11:34:05;100625.78;;;28.01;nan
2875;BME280;1445;52.600;13.328;2023-07-16T11:36:33;100624.72;;;29.04;nan
2875;BME280;1445;52.600;13.328;2023-07-16T11:38:58;100626.34;;;28.50;nan
2875;BME280;1445;52.600;13.328;2023-07-16T11:41:24;100623.81;;;28.83;nan
2875;BME280;1445;52.600;13.328;2023-07-16T11:43:49;100633.81;;;27.69;nan
2875;BME280;1445;52.600;13.328;2023-07-16T11:46:16;100633.69;;;27.45;nan
2875;BME280;1445;52.600;13.328;2023-07-16T11:48:42;100642.78;;;27.64;nan
2875;BME280;1445;52.600;13.328;2023-07-16T11:51:08;100644.63;;;27.85;nan
2875;BME280;1445;52.600;13.328;2023-07-16T11:53:33;100642.00;;;28.86;nan
2875;BME280;1445;52.600;13.328;2023-07-16T11:55:59;100637.09;;;29.37;nan
2875;BME280;1445;52.600;13.328;2023-07-16T11:58:24;100649.25;;;28.63;nan
2875;BME280;1445;52.600;13.328;2023-07-16T12:00:50;100641.31;;;28.20;nan
2875;BME280;1445;52.600;13.328;2023-07-16T12:03:16;100639.25;;;28.55;nan
2875;BME280;1445;52.600;13.328;2023-07-16T12:05:42;100637.66;;;29.05;nan
2875;BME280;1445;52.600;13.328;2023-07-16T12:08:08;100636.50;;;29.25;nan
2875;BME280;1445;52.600;13.328;2023-07-16T12:10:40;100628.50;;;29.40;nan
2875;BME280;1445;52.600;13.328;2023-07-16T12:13:05;100635.28;;;29.46;nan
2875;BME280;1445;52.600;13.328;2023-07-16T12:15:31;100646.25;;;28.74;nan
2875;BME280;1445;52.600;13.328;2023-07-16T12:17:57;100645.63;;;28.01;nan
2875;BME280;1445;52.600;13.328;2023-07-16T12:20:22;100658.00;;;28.45;nan
2875;BME280;1445;52.600;13.328;2023-07-16T12:22:48;100642.41;;;29.11;nan
2875;BME280;1445;52.600;13.328;2023-07-16T12:25:14;100639.41;;;28.95;nan
2875;BME280;1445;52.600;13.328;2023-07-16T12:27:41;100651.75;;;29.99;nan
2875;BME280;1445;52.600;13.328;2023-07-16T12:30:07;100645.19;;;30.02;nan
2875;BME280;1445;52.600;13.328;2023-07-16T12:32:33;100651.44;;;30.13;nan
2875;BME280;1445;52.600;13.328;2023-07-16T12:34:58;100642.56;;;29.91;nan
2875;BME280;1445;52.600;13.328;2023-07-16T12:37:25;100655.38;;;29.79;nan
2875;BME280;1445;52.600;13.328;2023-07-16T12:39:50;100641.69;;;30.34;nan
2875;BME280;1445;52.600;13.328;2023-07-16T12:42:16;100648.81;;;30.22;nan
2875;BME280;1445;52.600;13.328;2023-07-16T12:44:41;100657.16;;;30.49;nan
2875;BME280;1445;52.600;13.328;2023-07-16T12:47:07;100651.22;;;29.40;nan
2875;BME280;1445;52.600;13.328;2023-07-16T12:49:34;100645.19;;;30.22;nan
2875;BME280;1445;52.600;13.328;2023-07-16T12:51:59;100660.91;;;30.82;nan
2875;BME280;1445;52.600;13.328;2023-07-16T12:54:24;100650.72;;;30.09;nan
2875;BME280;1445;52.600;13.328;2023-07-16T12:56:50;100659.28;;;30.81;nan
2875;BME280;1445;52.600;13.328;2023-07-16T12:59:15;100658.00;;;30.66;nan
2875;BME280;1445;52.600;13.328;2023-07-16T13:01:41;100670.63;;;30.29;nan
2875;BME280;1445;52.600;13.328;2023-07-16T13:04:06;100657.16;;;30.33;nan
2875;BME280;1445;52.600;13.328;2023-07-16T13:06:32;100647.72;;;30.16;nan
2875;BME280;1445;52.600;13.328;2023-07-16T13:08:57;100644.59;;;29.04;nan
2875;BME280;1445;52.600;13.328;2023-07-16T13:11:23;100656.94;;;28.63;nan
2875;BME280;1445;52.600;13.328;2023-07-16T13:13:49;100651.22;;;29.64;nan
2875;BME280;1445;52.600;13.328;2023-07-16T13:16:14;100654.16;;;30.93;nan
2875;BME280;1445;52.600;13.328;2023-07-16T13:18:40;100661.13;;;31.53;nan
2875;BME280;1445;52.600;13.328;2023-07-16T13:21:05;100660.91;;;30.99;nan
2875;BME280;1445;52.600;13.328;2023-07-16T13:23:30;100665.47;;;32.03;nan
2875;BME280;1445;52.600;13.328;2023-07-16T13:25:56;100681.72;;;31.12;nan
2875;BME280;1445;52.600;13.328;2023-07-16T13:28:21;100678.84;;;30.43;nan
2875;BME280;1445;52.600;13.328;2023-07-16T13:30:48;100656.63;;;30.90;nan